Time;durP1;ratioP1;P1;durP2;ratioP2;P2;SDS_P1;SDS_P2;PMS_P1;PMS_P2;Temp;Humidity;BMP_temperature;BMP_pressure;BME280_temperature;BME280_humidity;BME280_pressure;Samples;Min_cycle;Max_cycle;Signal;HPM_P1;HPM_P2
2021/05/08 00:02:25;;;;;;;20.88;18.48;;;23.30;47.80;;;;;;4412063;60;21071;-24
2021/05/08 00:07:26;;;;;;;21.02;18.70;;;23.30;47.80;;;;;;4400762;60;21099;-26
2021/05/08 00:12:27;;;;;;;20.15;18.05;;;23.30;47.80;;;;;;4404179;60;21542;-25
2021/05/08 00:17:28;;;;;;;20.35;18.17;;;23.30;47.80;;;;;;4411267;60;21305;-23
2021/05/08 00:22:28;;;;;;;19.58;17.52;;;23.30;47.90;;;;;;4425033;60;21357;-25
2021/05/08 00:27:29;;;;;;;19.12;17.15;;;23.30;47.90;;;;;;4397309;60;21091;-26
2021/05/08 00:32:30;;;;;;;19.10;17.10;;;23.30;47.90;;;;;;4388823;60;21059;-26
2021/05/08 00:37:31;;;;;;;19.90;17.65;;;23.30;47.90;;;;;;4404247;60;21055;-24
2021/05/08 00:42:32;;;;;;;17.45;15.65;;;23.30;47.90;;;;;;4399901;60;21550;-25
2021/05/08 00:47:44;;;;;;;18.48;16.58;;;23.30;47.90;;;;;;4390326;60;21139;-23
2021/05/08 00:52:45;;;;;;;18.08;16.15;;;23.30;47.90;;;;;;4400901;60;21116;-25
2021/05/08 00:57:46;;;;;;;19.10;16.90;;;23.30;47.90;;;;;;4405665;60;21642;-26
2021/05/08 01:02:47;;;;;;;18.90;16.90;;;23.30;47.90;;;;;;4432273;60;21044;-28
2021/05/08 01:07:48;;;;;;;17.48;15.57;;;23.30;47.90;;;;;;4393197;60;21518;-23
2021/05/08 01:12:49;;;;;;;17.83;15.65;;;23.30;47.90;;;;;;4434847;60;21103;-26
2021/05/08 01:17:50;;;;;;;17.75;15.95;;;23.30;47.90;;;;;;4390778;60;21124;-22
2021/05/08 01:22:51;;;;;;;17.70;15.80;;;23.30;47.90;;;;;;4388186;64;21569;-25
2021/05/08 01:28:00;;;;;;;16.27;14.65;;;23.30;47.90;;;;;;4397643;60;21108;-24
2021/05/08 01:33:03;;;;;;;16.85;15.00;;;23.30;47.90;;;;;;4439974;60;21634;-26
2021/05/08 01:38:04;;;;;;;16.42;14.43;;;23.30;47.90;;;;;;4442629;60;21164;-25
2021/05/08 01:43:05;;;;;;;17.00;15.20;;;23.30;47.90;;;;;;4398013;60;21111;-25
2021/05/08 01:48:08;;;;;;;16.10;14.40;;;23.30;47.90;;;;;;4387844;60;21035;-25
2021/05/08 01:53:09;;;;;;;15.45;13.85;;;23.30;47.90;;;;;;4397651;60;21510;-25
2021/05/08 01:58:10;;;;;;;16.37;14.68;;;23.30;47.90;;;;;;4418731;60;21039;-26
2021/05/08 02:03:12;;;;;;;16.85;15.13;;;23.30;47.90;;;;;;4435286;60;21092;-28
2021/05/08 02:08:14;;;;;;;15.90;14.20;;;23.30;48.00;;;;;;4410764;60;21048;-29
2021/05/08 02:13:15;;;;;;;15.15;13.60;;;23.30;47.90;;;;;;4409251;60;21103;-25
2021/05/08 02:18:16;;;;;;;14.75;13.25;;;23.20;47.90;;;;;;4394242;60;21063;-25
2021/05/08 02:23:18;;;;;;;14.40;12.90;;;23.30;47.90;;;;;;4388057;60;21518;-27
2021/05/08 02:28:19;;;;;;;15.20;13.45;;;23.30;47.90;;;;;;4393865;60;21111;-26
2021/05/08 02:33:20;;;;;;;15.05;13.45;;;23.30;47.90;;;;;;4403374;60;21646;-27
2021/05/08 02:38:21;;;;;;;15.82;14.18;;;23.30;48.00;;;;;;4415520;60;21035;-25
2021/05/08 02:43:22;;;;;;;14.32;12.82;;;23.30;48.00;;;;;;4415494;60;21164;-27
2021/05/08 02:48:23;;;;;;;14.43;12.93;;;23.30;48.00;;;;;;4388160;64;21047;-24
2021/05/08 02:53:26;;;;;;;13.90;12.50;;;23.20;47.90;;;;;;4393933;60;21544;-27
2021/05/08 02:58:27;;;;;;;14.27;12.77;;;23.20;47.90;;;;;;4434585;60;21100;-24
2021/05/08 03:03:28;;;;;;;15.05;13.05;;;23.30;47.90;;;;;;4397928;60;21111;-28
2021/05/08 03:08:28;;;;;;;14.15;12.65;;;23.20;47.90;;;;;;4391572;60;21091;-26
2021/05/08 03:13:29;;;;;;;14.43;12.88;;;23.20;47.90;;;;;;4387797;64;21075;-26
2021/05/08 03:18:30;;;;;;;14.75;12.70;;;23.20;47.90;;;;;;4422824;60;21089;-27
2021/05/08 03:23:31;;;;;;;13.60;12.20;;;23.20;48.00;;;;;;4412367;60;21554;-24
2021/05/08 03:28:32;;;;;;;13.27;11.93;;;23.20;47.90;;;;;;4403509;60;21080;-28
2021/05/08 03:33:32;;;;;;;13.90;12.50;;;23.20;47.90;;;;;;4400594;60;21043;-26
2021/05/08 03:38:33;;;;;;;13.40;12.00;;;23.20;47.90;;;;;;4395589;60;21514;-25
2021/05/08 03:43:34;;;;;;;13.35;12.00;;;23.20;48.00;;;;;;4406384;60;21157;-26
2021/05/08 03:48:35;;;;;;;13.52;12.13;;;23.20;47.90;;;;;;4395147;60;21108;-26
2021/05/08 03:53:38;;;;;;;13.57;12.18;;;23.20;47.90;;;;;;4395567;60;21052;-27
2021/05/08 03:58:38;;;;;;;13.20;11.90;;;23.20;47.90;;;;;;4409957;60;21056;-26
2021/05/08 04:03:39;;;;;;;13.00;11.60;;;23.20;47.90;;;;;;4396012;60;21614;-26
2021/05/08 04:08:40;;;;;;;13.40;12.05;;;23.20;47.90;;;;;;4390678;60;21112;-21
2021/05/08 04:13:41;;;;;;;14.90;12.63;;;23.20;47.90;;;;;;4387943;64;21040;-25
2021/05/08 04:18:42;;;;;;;12.93;11.52;;;23.20;47.90;;;;;;4394945;60;21031;-21
2021/05/08 04:23:43;;;;;;;16.65;12.63;;;23.20;47.90;;;;;;4387437;60;21056;-22
2021/05/08 04:28:44;;;;;;;14.48;12.30;;;23.20;47.90;;;;;;4396278;60;21090;-26
2021/05/08 04:33:45;;;;;;;13.55;12.15;;;23.20;47.90;;;;;;4418083;60;21044;-25
2021/05/08 04:38:45;;;;;;;13.77;12.00;;;23.20;48.00;;;;;;4396308;60;21059;-25
2021/05/08 04:43:46;;;;;;;13.50;11.70;;;23.20;48.00;;;;;;4389543;60;22100;-26
2021/05/08 04:48:47;;;;;;;13.30;11.95;;;23.20;48.00;;;;;;4388298;64;21518;-25
2021/05/08 04:53:48;;;;;;;13.77;12.37;;;23.20;48.00;;;;;;4394929;60;21060;-26
2021/05/08 04:58:49;;;;;;;13.55;12.15;;;23.20;48.00;;;;;;4408557;60;21064;-25
2021/05/08 05:03:50;;;;;;;13.38;11.90;;;23.10;48.00;;;;;;4402002;60;21159;-22
2021/05/08 05:08:51;;;;;;;14.95;13.23;;;23.20;48.00;;;;;;4388038;60;21039;-23
2021/05/08 05:13:52;;;;;;;14.43;12.65;;;23.20;48.00;;;;;;4410363;60;21052;-25
2021/05/08 05:18:53;;;;;;;14.73;13.23;;;23.20;48.10;;;;;;4416066;60;21500;-27
2021/05/08 05:23:53;;;;;;;15.07;13.23;;;23.10;47.90;;;;;;4415438;60;21071;-26
2021/05/08 05:28:54;;;;;;;13.93;12.43;;;23.20;48.00;;;;;;4387738;64;21067;-23
2021/05/08 05:33:55;;;;;;;14.73;13.23;;;23.10;47.90;;;;;;4388347;64;21490;-25
2021/05/08 05:38:57;;;;;;;15.35;13.35;;;23.10;47.90;;;;;;4440628;60;21056;-25
2021/05/08 05:44:01;;;;;;;15.70;13.70;;;23.10;47.90;;;;;;4395561;60;21154;-25
2021/05/08 05:49:02;;;;;;;17.05;15.20;;;23.10;47.80;;;;;;4415257;60;21545;-25
2021/05/08 05:54:03;;;;;;;15.85;14.25;;;23.10;47.80;;;;;;4388044;64;21109;-26
2021/05/08 05:59:07;;;;;;;16.48;14.23;;;23.10;47.70;;;;;;4388123;60;21031;-24
2021/05/08 06:04:08;;;;;;;14.80;13.27;;;23.10;47.80;;;;;;4388633;60;21055;-22
2021/05/08 06:09:11;;;;;;;16.83;14.98;;;23.10;47.70;;;;;;4389412;60;21055;-24
2021/05/08 06:14:12;;;;;;;16.15;14.40;;;23.10;47.70;;;;;;4420267;60;21111;-23
2021/05/08 06:19:14;;;;;;;17.27;15.20;;;23.10;47.70;;;;;;4405642;60;21039;-21
2021/05/08 06:24:14;;;;;;;17.90;15.50;;;23.10;47.60;;;;;;4387845;64;21052;-24
2021/05/08 06:29:18;;;;;;;18.85;16.30;;;23.10;47.60;;;;;;4387996;64;21099;-18
2021/05/08 06:34:20;;;;;;;19.75;16.87;;;23.10;47.60;;;;;;4460071;60;21040;-26
2021/05/08 06:39:22;;;;;;;18.83;16.70;;;23.10;47.50;;;;;;4388019;64;21099;-22
2021/05/08 06:44:26;;;;;;;20.52;16.98;;;23.10;47.50;;;;;;4420145;60;21594;-26
2021/05/08 06:49:27;;;;;;;18.90;16.27;;;23.10;47.40;;;;;;4425343;60;21541;-26
2021/05/08 06:54:27;;;;;;;20.35;16.92;;;23.10;47.40;;;;;;4443108;60;21047;-26
2021/05/08 06:59:28;;;;;;;19.70;15.77;;;23.10;47.30;;;;;;4387408;64;21116;-25
2021/05/08 07:04:29;;;;;;;17.85;15.55;;;23.10;47.30;;;;;;4387497;64;21149;-27
2021/05/08 07:09:30;;;;;;;19.48;16.50;;;23.10;47.30;;;;;;4396447;60;21537;-25
2021/05/08 07:14:31;;;;;;;18.55;16.45;;;23.10;47.30;;;;;;4400319;60;21486;-25
2021/05/08 07:19:32;;;;;;;19.42;16.52;;;23.10;47.20;;;;;;4390414;60;21075;-28
2021/05/08 07:24:32;;;;;;;18.67;16.55;;;23.10;47.20;;;;;;4400925;60;21996;-26
2021/05/08 07:29:33;;;;;;;18.87;16.62;;;23.10;47.10;;;;;;4442136;60;21104;-25
2021/05/08 07:34:34;;;;;;;18.27;15.95;;;23.10;47.10;;;;;;4391892;60;21075;-26
2021/05/08 07:39:35;;;;;;;18.33;15.77;;;23.10;47.10;;;;;;4424315;60;21144;-24
2021/05/08 07:44:36;;;;;;;18.17;15.90;;;23.10;47.20;;;;;;4397805;60;21198;-22
2021/05/08 07:49:36;;;;;;;17.27;15.25;;;23.10;47.00;;;;;;4391756;60;21070;-25
2021/05/08 07:54:37;;;;;;;17.17;15.10;;;23.10;47.00;;;;;;4403812;60;21168;-26
2021/05/08 07:59:38;;;;;;;20.12;17.50;;;23.10;47.00;;;;;;4425183;60;21549;-25
2021/05/08 08:04:39;;;;;;;19.12;16.23;;;23.10;46.90;;;;;;4425685;60;21044;-23
2021/05/08 08:09:43;;;;;;;18.95;16.33;;;23.10;47.00;;;;;;4426662;60;21107;-26
2021/05/08 08:14:43;;;;;;;19.77;16.77;;;23.10;46.80;;;;;;4396211;60;21835;-26
2021/05/08 08:19:48;;;;;;;19.98;16.90;;;23.10;46.90;;;;;;4412414;60;21138;-27
2021/05/08 08:24:49;;;;;;;18.52;16.60;;;23.10;46.80;;;;;;4433757;60;21118;-27
2021/05/08 08:29:50;;;;;;;18.98;16.52;;;23.10;46.80;;;;;;4387399;60;21123;-24
2021/05/08 08:34:51;;;;;;;20.67;17.37;;;23.10;46.80;;;;;;4395449;60;21084;-28
2021/05/08 08:39:52;;;;;;;21.75;18.27;;;23.10;46.80;;;;;;4390260;60;22167;-25
2021/05/08 08:44:53;;;;;;;19.37;17.00;;;23.10;46.70;;;;;;4387187;64;21185;-24
2021/05/08 08:50:12;;;;;;;21.33;18.15;;;23.00;46.70;;;;;;4412843;60;21545;-26
2021/05/08 08:55:13;;;;;;;20.00;17.40;;;23.10;46.70;;;;;;4388135;64;21490;-27
2021/05/08 09:00:16;;;;;;;20.33;17.85;;;23.10;46.70;;;;;;4394520;60;21096;-25
2021/05/08 09:05:19;;;;;;;21.17;18.77;;;23.10;46.60;;;;;;4391831;60;21036;-26
2021/05/08 09:10:31;;;;;;;23.08;19.75;;;23.10;46.60;;;;;;4387944;60;21533;-26
2021/05/08 09:15:40;;;;;;;23.42;20.48;;;23.10;47.00;;;;;;4396751;60;21047;-26
2021/05/08 09:20:46;;;;;;;24.08;20.42;;;23.10;46.50;;;;;;4416292;60;21604;-25
2021/05/08 09:26:38;;;;;;;22.83;18.95;;;23.10;46.50;;;;;;4429764;60;21113;-25
2021/05/08 09:31:55;;;;;;;24.40;20.52;;;23.10;46.50;;;;;;4388044;60;21569;-27
2021/05/08 09:36:56;;;;;;;23.08;20.20;;;23.10;46.50;;;;;;4397673;60;21023;-28
2021/05/08 09:41:57;;;;;;;24.12;21.50;;;23.10;46.40;;;;;;4395190;60;21099;-25
2021/05/08 09:46:59;;;;;;;24.80;21.67;;;23.10;46.40;;;;;;4387145;64;21180;-26
2021/05/08 09:52:01;;;;;;;24.30;21.15;;;23.10;46.40;;;;;;4388190;64;22183;-25
2021/05/08 09:57:02;;;;;;;26.80;21.98;;;23.10;46.40;;;;;;4409724;60;21216;-25
2021/05/08 10:02:15;;;;;;;26.95;22.85;;;23.10;46.40;;;;;;4407319;60;21096;-27
2021/05/08 10:07:29;;;;;;;26.08;23.27;;;23.10;46.30;;;;;;4387019;64;21055;-22
2021/05/08 10:12:30;;;;;;;26.58;22.10;;;23.10;46.20;;;;;;4422593;60;21160;-27
2021/05/08 10:17:31;;;;;;;29.45;23.02;;;23.10;46.20;;;;;;4402918;60;21043;-28
2021/05/08 10:22:50;;;;;;;27.27;23.83;;;23.10;46.20;;;;;;4423246;60;21132;-22
2021/05/08 10:27:51;;;;;;;27.55;23.90;;;23.00;46.10;;;;;;4434623;60;21083;-25
2021/05/08 10:32:52;;;;;;;28.58;24.85;;;23.10;46.20;;;;;;4387314;64;21172;-26
2021/05/08 10:38:12;;;;;;;27.23;23.77;;;23.10;46.10;;;;;;4422996;60;21083;-25
2021/05/08 10:43:37;;;;;;;29.90;24.65;;;23.10;46.10;;;;;;4408764;60;21582;-27
2021/05/08 10:48:38;;;;;;;30.40;25.27;;;23.10;46.10;;;;;;4387920;64;21585;-26
2021/05/08 10:53:43;;;;;;;33.35;26.80;;;23.10;46.00;;;;;;4401303;60;21108;-27
2021/05/08 10:59:03;;;;;;;32.13;28.17;;;23.10;46.00;;;;;;4428629;60;21401;-27
2021/05/08 11:04:04;;;;;;;32.60;26.77;;;23.10;45.90;;;;;;4402136;60;21079;-25
2021/05/08 11:09:27;;;;;;;33.65;28.98;;;23.10;45.90;;;;;;4404734;60;21111;-25
2021/05/08 11:14:52;;;;;;;33.42;28.12;;;23.10;45.80;;;;;;4387970;64;21032;-28
2021/05/08 11:19:53;;;;;;;34.95;29.08;;;23.10;46.50;;;;;;4405551;60;21385;-25
2021/05/08 11:24:54;;;;;;;34.10;29.42;;;23.10;45.70;;;;;;4397768;60;21132;-23
2021/05/08 11:30:03;;;;;;;35.03;29.50;;;23.10;45.60;;;;;;4395097;60;21143;-24
2021/05/08 11:35:05;;;;;;;34.05;28.05;;;23.10;45.60;;;;;;4392980;60;21533;-24
2021/05/08 11:40:07;;;;;;;37.92;31.83;;;23.10;45.60;;;;;;4453474;60;21096;-26
2021/05/08 11:45:11;;;;;;;36.90;30.05;;;23.10;45.60;;;;;;4387922;60;21091;-26
2021/05/08 11:50:16;;;;;;;36.17;30.60;;;23.10;45.50;;;;;;4387608;64;21044;-24
2021/05/08 11:55:18;;;;;;;35.58;30.40;;;23.10;45.50;;;;;;4445297;60;21561;-27
2021/05/08 12:00:21;;;;;;;35.35;29.73;;;23.10;45.50;;;;;;4420752;60;21086;-25
2021/05/08 12:05:25;;;;;;;38.63;32.15;;;23.10;45.50;;;;;;4418213;60;21111;-26
2021/05/08 12:10:26;;;;;;;37.70;31.55;;;23.10;45.40;;;;;;4393236;60;21601;-21
2021/05/08 12:15:38;;;;;;;38.17;32.05;;;23.10;45.40;;;;;;4392561;60;21086;-24
2021/05/08 12:20:50;;;;;;;39.13;32.97;;;23.10;45.30;;;;;;4397126;60;21561;-24
2021/05/08 12:26:16;;;;;;;39.58;31.58;;;23.10;45.30;;;;;;4387301;64;21059;-21
2021/05/08 12:31:35;;;;;;;39.70;32.88;;;23.10;45.30;;;;;;4387838;64;22183;-24
2021/05/08 12:36:36;;;;;;;37.00;32.65;;;23.10;45.20;;;;;;4399666;60;21533;-26
2021/05/08 12:41:39;;;;;;;39.05;33.35;;;23.10;45.20;;;;;;4388712;64;21116;-26
2021/05/08 12:47:04;;;;;;;36.85;32.00;;;23.00;45.20;;;;;;4389028;60;21610;-27
2021/05/08 12:52:24;;;;;;;42.05;34.13;;;23.10;45.10;;;;;;4416731;60;21574;-26
2021/05/08 12:57:27;;;;;;;38.70;33.13;;;23.10;45.10;;;;;;4396582;60;21609;-21
2021/05/08 13:02:29;;;;;;;37.28;31.65;;;23.10;45.10;;;;;;4388089;64;21141;-23
2021/05/08 13:07:37;;;;;;;40.67;32.47;;;23.10;45.10;;;;;;4403325;60;21548;-27
2021/05/08 13:12:37;;;;;;;;;;;23.10;45.10;;;;;;4404127;60;21518;-26
2021/05/08 13:17:38;;;;;;;41.40;33.55;;;23.10;45.10;;;;;;4397364;60;20066;-24
2021/05/08 13:22:42;;;;;;;39.55;32.10;;;23.10;45.00;;;;;;4416202;60;21096;-28
2021/05/08 13:27:46;;;;;;;38.03;31.98;;;23.10;45.00;;;;;;4387146;64;21569;-25
2021/05/08 13:32:48;;;;;;;39.92;32.78;;;23.10;45.00;;;;;;4388212;61;21151;-28
2021/05/08 13:37:50;;;;;;;41.97;32.75;;;23.00;44.90;;;;;;4387603;64;21123;-25
2021/05/08 13:42:51;;;;;;;38.15;31.70;;;23.00;44.90;;;;;;4390983;60;21055;-35
2021/05/08 13:47:52;;;;;;;38.03;31.52;;;23.00;44.80;;;;;;4393893;60;21056;-26
2021/05/08 13:52:52;;;;;;;39.38;32.42;;;23.00;44.80;;;;;;4397497;60;21036;-24
2021/05/08 13:57:53;;;;;;;36.53;31.12;;;23.00;44.80;;;;;;4392050;60;21119;-23
2021/05/08 14:02:54;;;;;;;37.40;30.60;;;23.10;44.80;;;;;;4387939;60;21084;-24
2021/05/08 14:07:55;;;;;;;39.17;32.53;;;23.10;44.80;;;;;;4417832;60;21534;-23
2021/05/08 14:12:55;;;;;;;35.70;30.62;;;23.10;44.80;;;;;;4418361;60;21028;-24
2021/05/08 14:17:56;;;;;;;36.25;30.80;;;23.10;44.80;;;;;;4442137;60;21031;-25
2021/05/08 14:22:57;;;;;;;36.30;30.52;;;23.10;44.70;;;;;;4416497;60;21004;-25
2021/05/08 14:27:58;;;;;;;36.45;31.33;;;23.00;44.60;;;;;;4420909;60;21028;-23
2021/05/08 14:33:02;;;;;;;38.40;30.48;;;23.10;44.70;;;;;;4463760;60;21059;-27
2021/05/08 14:38:05;;;;;;;38.10;30.52;;;23.10;44.60;;;;;;4397616;60;21028;-27
2021/05/08 14:43:05;;;;;;;34.90;29.17;;;23.10;44.60;;;;;;4394364;60;21498;-25
2021/05/08 14:48:07;;;;;;;36.22;30.45;;;23.00;44.50;;;;;;4393503;60;21044;-26
2021/05/08 14:53:08;;;;;;;33.75;29.50;;;23.10;44.50;;;;;;4394934;60;21101;-25
2021/05/08 14:58:08;;;;;;;35.00;29.45;;;23.10;44.50;;;;;;4388061;60;21036;-25
2021/05/08 15:03:10;;;;;;;35.08;30.62;;;23.10;44.50;;;;;;4395811;60;21517;-27
2021/05/08 15:08:11;;;;;;;35.42;31.08;;;23.00;44.40;;;;;;4400065;60;21546;-27
2021/05/08 15:13:12;;;;;;;36.30;30.50;;;23.00;44.30;;;;;;4462865;60;21068;-27
2021/05/08 15:18:14;;;;;;;33.70;28.87;;;23.00;44.20;;;;;;4389481;60;21119;-25
2021/05/08 15:23:15;;;;;;;34.75;30.33;;;23.00;44.10;;;;;;4388441;60;21521;-24
2021/05/08 15:28:16;;;;;;;34.50;28.08;;;23.00;44.10;;;;;;4391013;60;21135;-28
2021/05/08 15:33:17;;;;;;;34.10;28.77;;;23.10;44.10;;;;;;4403917;60;21645;-27
2021/05/08 15:38:19;;;;;;;35.97;29.08;;;23.00;44.10;;;;;;4393816;60;21036;-22
2021/05/08 15:43:20;;;;;;;31.52;27.08;;;23.00;44.00;;;;;;4387288;64;21668;-25
2021/05/08 15:48:21;;;;;;;31.60;26.90;;;23.00;43.90;;;;;;4439678;60;21052;-23
2021/05/08 15:53:21;;;;;;;32.78;27.42;;;23.00;43.90;;;;;;4467747;60;21108;-23
2021/05/08 15:58:22;;;;;;;31.83;27.17;;;23.00;43.90;;;;;;4388255;64;21132;-25
2021/05/08 16:03:23;;;;;;;31.83;26.45;;;23.10;44.00;;;;;;4407838;60;21051;-26
2021/05/08 16:08:24;;;;;;;32.30;26.85;;;23.00;43.90;;;;;;4387862;64;21040;-25
2021/05/08 16:13:25;;;;;;;31.08;26.05;;;23.00;43.80;;;;;;4399845;60;21072;-23
2021/05/08 16:18:26;;;;;;;31.10;26.60;;;23.00;43.80;;;;;;4403504;60;21626;-28
2021/05/08 16:23:27;;;;;;;30.35;26.62;;;23.00;43.80;;;;;;4393076;60;21108;-27
2021/05/08 16:28:27;;;;;;;28.90;25.45;;;23.00;43.80;;;;;;4387828;60;21135;-24
2021/05/08 16:33:28;;;;;;;30.75;26.25;;;23.10;43.80;;;;;;4402891;60;21031;-28
2021/05/08 16:38:29;;;;;;;31.98;26.35;;;23.00;43.70;;;;;;4395627;60;21070;-26
2021/05/08 16:43:30;;;;;;;29.85;24.58;;;23.00;43.70;;;;;;4395672;60;21558;-25
2021/05/08 16:48:30;;;;;;;28.20;24.77;;;23.00;43.60;;;;;;4405354;60;22357;-26
2021/05/08 16:53:31;;;;;;;28.35;24.83;;;23.00;43.70;;;;;;4469752;60;21059;-28
2021/05/08 16:58:32;;;;;;;31.08;25.92;;;23.00;43.60;;;;;;4444676;60;21541;-26
2021/05/08 17:03:33;;;;;;;29.77;26.02;;;23.00;43.50;;;;;;4432368;60;21093;-25
2021/05/08 17:08:37;;;;;;;28.02;23.52;;;23.00;43.60;;;;;;4395831;60;21056;-26
2021/05/08 17:13:38;;;;;;;28.42;24.60;;;23.00;43.60;;;;;;4391419;60;21534;-25
2021/05/08 17:18:39;;;;;;;26.92;23.42;;;23.00;43.60;;;;;;4392475;60;21063;-27
2021/05/08 17:23:40;;;;;;;28.73;24.10;;;23.00;43.60;;;;;;4391534;60;21063;-26
2021/05/08 17:28:41;;;;;;;28.83;23.42;;;23.10;43.60;;;;;;4415132;60;21055;-23
2021/05/08 17:33:42;;;;;;;26.70;23.45;;;23.00;43.50;;;;;;4420001;60;21071;-26
2021/05/08 17:38:42;;;;;;;27.87;24.33;;;23.00;43.50;;;;;;4388934;60;21530;-26
2021/05/08 17:43:43;;;;;;;28.15;23.87;;;23.00;43.50;;;;;;4394390;60;21593;-25
2021/05/08 17:48:44;;;;;;;27.20;23.15;;;23.00;43.40;;;;;;4393953;60;21079;-26
2021/05/08 17:53:46;;;;;;;27.40;23.65;;;23.00;43.50;;;;;;4396288;60;21096;-25
2021/05/08 17:58:46;;;;;;;28.48;22.20;;;23.00;43.40;;;;;;4395126;60;21092;-26
2021/05/08 18:03:47;;;;;;;26.12;22.55;;;23.00;43.40;;;;;;4409295;60;21350;-27
2021/05/08 18:08:48;;;;;;;24.35;21.73;;;23.00;43.30;;;;;;4402243;60;21056;-25
2021/05/08 18:13:49;;;;;;;26.83;22.77;;;23.00;43.30;;;;;;4437838;60;21060;-26
2021/05/08 18:18:50;;;;;;;25.90;22.02;;;23.00;43.40;;;;;;4387655;64;21044;-20
2021/05/08 18:23:51;;;;;;;23.20;20.67;;;23.00;43.30;;;;;;4388540;64;21060;-26
2021/05/08 18:28:51;;;;;;;25.92;21.98;;;23.00;43.20;;;;;;4418546;60;21036;-27
2021/05/08 18:33:52;;;;;;;25.52;22.25;;;23.00;43.30;;;;;;4389621;60;21099;-26
2021/05/08 18:38:54;;;;;;;24.77;21.65;;;23.00;43.20;;;;;;4397117;60;21076;-25
2021/05/08 18:43:55;;;;;;;25.25;21.70;;;23.00;43.20;;;;;;4387300;64;21150;-25
2021/05/08 18:48:56;;;;;;;24.27;21.67;;;23.00;43.20;;;;;;4399182;60;21079;-27
2021/05/08 18:53:57;;;;;;;25.52;21.35;;;23.00;43.20;;;;;;4396678;60;21075;-26
2021/05/08 18:58:58;;;;;;;25.83;21.50;;;23.00;43.10;;;;;;4435200;60;21085;-27
2021/05/08 19:03:59;;;;;;;24.85;21.37;;;23.00;43.10;;;;;;4407433;60;21039;-24
2021/05/08 19:09:00;;;;;;;23.30;20.73;;;23.00;43.10;;;;;;4419260;60;21096;-25
2021/05/08 19:14:01;;;;;;;25.37;21.52;;;23.00;43.10;;;;;;4396530;60;21586;-25
2021/05/08 19:19:02;;;;;;;24.02;21.12;;;23.00;43.20;;;;;;4390191;60;21043;-27
2021/05/08 19:24:04;;;;;;;25.00;20.27;;;23.00;43.10;;;;;;4396041;60;21054;-23
2021/05/08 19:29:04;;;;;;;26.65;23.20;;;23.00;43.10;;;;;;4418164;60;21096;-26
2021/05/08 19:34:05;;;;;;;27.33;23.10;;;23.00;43.10;;;;;;4435923;60;21494;-25
2021/05/08 19:39:06;;;;;;;26.58;22.40;;;23.00;43.20;;;;;;4418134;60;21075;-22
2021/05/08 19:44:09;;;;;;;26.55;22.33;;;23.00;43.10;;;;;;4416760;60;21176;-27
2021/05/08 19:49:10;;;;;;;27.20;23.17;;;23.00;43.10;;;;;;4388217;64;21591;-27
2021/05/08 19:54:11;;;;;;;26.00;21.00;;;23.00;43.10;;;;;;4395751;60;21035;-26
2021/05/08 19:59:12;;;;;;;24.63;21.77;;;23.00;43.10;;;;;;4396045;60;21510;-26
2021/05/08 20:04:13;;;;;;;26.35;21.62;;;23.00;43.10;;;;;;4396182;60;21160;-23
2021/05/08 20:09:13;;;;;;;26.40;20.88;;;23.00;43.10;;;;;;4393440;60;21044;-23
2021/05/08 20:14:14;;;;;;;25.73;21.20;;;23.00;43.10;;;;;;4397100;60;21048;-26
2021/05/08 20:19:15;;;;;;;28.50;22.98;;;23.00;43.10;;;;;;4387626;64;21047;-27
2021/05/08 20:24:16;;;;;;;26.95;22.62;;;23.00;43.10;;;;;;4397791;60;21550;-26
2021/05/08 20:29:17;;;;;;;28.30;23.98;;;22.90;43.00;;;;;;4398302;60;21521;-28
2021/05/08 20:34:18;;;;;;;26.45;22.60;;;23.00;43.10;;;;;;4389616;60;21084;-25
2021/05/08 20:39:19;;;;;;;28.73;23.90;;;23.00;43.10;;;;;;4421338;60;21028;-26
2021/05/08 20:44:20;;;;;;;30.25;25.95;;;23.00;43.10;;;;;;4387329;64;21064;-24
2021/05/08 20:49:20;;;;;;;30.60;25.73;;;23.00;43.10;;;;;;4390193;60;21137;-26
2021/05/08 20:54:22;;;;;;;28.08;24.02;;;22.90;43.00;;;;;;4388034;64;21077;-23
2021/05/08 20:59:23;;;;;;;29.90;24.95;;;22.90;43.00;;;;;;4406994;60;21096;-25
2021/05/08 21:04:25;;;;;;;30.12;24.52;;;22.90;43.00;;;;;;4399332;60;21044;-24
2021/05/08 21:09:26;;;;;;;28.92;24.45;;;22.90;43.00;;;;;;4404629;60;21514;-27
2021/05/08 21:14:27;;;;;;;28.27;23.98;;;22.90;43.00;;;;;;4395969;60;21047;-28
2021/05/08 21:19:29;;;;;;;28.60;23.85;;;22.90;43.10;;;;;;4398531;60;21613;-27
2021/05/08 21:24:29;;;;;;;29.10;24.45;;;22.90;43.10;;;;;;4424008;60;21533;-26
2021/05/08 21:29:30;;;;;;;27.95;23.75;;;22.90;43.20;;;;;;4398198;60;21171;-25
2021/05/08 21:34:31;;;;;;;28.45;23.48;;;22.90;43.10;;;;;;4398224;60;21055;-25
2021/05/08 21:39:32;;;;;;;31.50;25.35;;;22.90;43.20;;;;;;4401683;60;21052;-26
2021/05/08 21:44:33;;;;;;;30.65;25.95;;;22.90;43.20;;;;;;4399576;60;21083;-26
2021/05/08 21:49:33;;;;;;;27.65;23.92;;;22.90;43.20;;;;;;4395260;60;21076;-24
2021/05/08 21:54:34;;;;;;;27.95;24.00;;;22.90;43.20;;;;;;4400847;60;21514;-26
2021/05/08 21:59:35;;;;;;;28.30;23.70;;;22.90;43.30;;;;;;4444560;60;21068;-26
2021/05/08 22:04:36;;;;;;;31.15;23.52;;;22.90;43.30;;;;;;4388596;60;21083;-25
2021/05/08 22:09:37;;;;;;;28.25;23.42;;;22.90;43.30;;;;;;4423853;60;21076;-25
2021/05/08 22:14:38;;;;;;;26.73;22.45;;;22.90;43.30;;;;;;4391605;60;21095;-25
2021/05/08 22:19:39;;;;;;;26.27;23.02;;;22.90;43.40;;;;;;4411915;60;21079;-27
2021/05/08 22:24:40;;;;;;;28.42;23.25;;;22.90;43.30;;;;;;4405439;60;21091;-26
2021/05/08 22:29:41;;;;;;;28.20;22.27;;;22.90;43.40;;;;;;4419852;60;21071;-25
2021/05/08 22:34:42;;;;;;;26.25;22.77;;;22.90;43.40;;;;;;4387883;64;21066;-26
2021/05/08 22:39:43;;;;;;;27.52;23.20;;;22.90;43.40;;;;;;4402913;60;21098;-27
2021/05/08 22:44:43;;;;;;;25.23;21.70;;;22.90;43.40;;;;;;4398627;60;22246;-27
2021/05/08 22:49:44;;;;;;;27.45;21.73;;;22.90;43.50;;;;;;4429443;60;21091;-25
2021/05/08 22:54:45;;;;;;;26.10;21.85;;;22.90;43.50;;;;;;4388049;64;21610;-27
2021/05/08 22:59:46;;;;;;;24.25;21.10;;;22.90;43.50;;;;;;4402979;60;21610;-25
2021/05/08 23:04:47;;;;;;;24.63;21.90;;;22.90;43.50;;;;;;4392043;60;21048;-23
2021/05/08 23:09:48;;;;;;;26.70;23.30;;;22.90;43.50;;;;;;4405243;60;21044;-24
2021/05/08 23:14:49;;;;;;;26.12;22.40;;;22.90;43.50;;;;;;4387974;64;21108;-28
2021/05/08 23:19:49;;;;;;;25.08;21.17;;;22.90;43.60;;;;;;4387976;60;21108;-24
2021/05/08 23:24:50;;;;;;;23.83;20.00;;;22.90;43.60;;;;;;4405909;60;21080;-25
2021/05/08 23:29:51;;;;;;;23.75;20.35;;;22.90;43.60;;;;;;4406761;60;21092;-26
2021/05/08 23:34:52;;;;;;;25.20;21.62;;;22.90;43.60;;;;;;4413142;60;21080;-24
2021/05/08 23:39:53;;;;;;;25.10;20.42;;;22.90;43.70;;;;;;4422490;60;21087;-23
2021/05/08 23:44:53;;;;;;;24.33;20.15;;;22.90;43.60;;;;;;4394696;60;21076;-20
2021/05/08 23:49:54;;;;;;;24.23;20.30;;;22.90;43.60;;;;;;4416637;60;21036;-23
2021/05/08 23:55:00;;;;;;;23.08;20.20;;;22.90;43.60;;;;;;4410179;60;21573;-22
